sensor_id;sensor_type;location;lat;lon;timestamp;pressure;altitude;pressure_sealevel;temperature;humidity
56414;BME280;42318;48.452;19.526;2023-05-24T00:01:35;97976.66;;;21.51;54.47
56414;BME280;42318;48.452;19.526;2023-05-24T00:09:07;97984.84;;;21.51;54.73
56414;BME280;42318;48.452;19.526;2023-05-24T00:16:38;97980.47;;;21.50;54.85
56414;BME280;42318;48.452;19.526;2023-05-24T00:24:09;97978.84;;;21.49;54.80
56414;BME280;42318;48.452;19.526;2023-05-24T00:31:40;97979.13;;;21.47;54.43
56414;BME280;42318;48.452;19.526;2023-05-24T00:39:11;97981.84;;;21.47;54.65
56414;BME280;42318;48.452;19.526;2023-05-24T00:46:42;97973.94;;;21.46;54.88
56414;BME280;42318;48.452;19.526;2023-05-24T00:54:14;97980.22;;;21.46;54.50
56414;BME280;42318;48.452;19.526;2023-05-24T01:01:45;97973.41;;;21.44;54.66
56414;BME280;42318;48.452;19.526;2023-05-24T01:09:28;97985.13;;;21.44;54.64
56414;BME280;42318;48.452;19.526;2023-05-24T01:17:22;97988.94;;;21.43;54.71
56414;BME280;42318;48.452;19.526;2023-05-24T01:25:16;97986.78;;;21.40;54.74
56414;BME280;42318;48.452;19.526;2023-05-24T01:32:49;97978.59;;;21.40;54.63
56414;BME280;42318;48.452;19.526;2023-05-24T01:40:20;97985.69;;;21.41;54.85
56414;BME280;42318;48.452;19.526;2023-05-24T01:55:28;97976.97;;;21.39;54.78
56414;BME280;42318;48.452;19.526;2023-05-24T02:03:00;97977.78;;;21.40;54.52
56414;BME280;42318;48.452;19.526;2023-05-24T02:10:32;97969.59;;;21.40;54.62
56414;BME280;42318;48.452;19.526;2023-05-24T02:18:03;97960.91;;;21.38;54.79
56414;BME280;42318;48.452;19.526;2023-05-24T02:25:37;97972.63;;;21.38;54.74
56414;BME280;42318;48.452;19.526;2023-05-24T02:33:08;97957.09;;;21.34;54.64
56414;BME280;42318;48.452;19.526;2023-05-24T02:40:38;97945.38;;;21.33;54.59
56414;BME280;42318;48.452;19.526;2023-05-24T02:48:09;97955.19;;;21.34;54.87
56414;BME280;42318;48.452;19.526;2023-05-24T02:55:40;97952.72;;;21.33;54.59
56414;BME280;42318;48.452;19.526;2023-05-24T03:03:13;97955.47;;;21.33;54.63
56414;BME280;42318;48.452;19.526;2023-05-24T03:10:44;97969.09;;;21.33;54.82
56414;BME280;42318;48.452;19.526;2023-05-24T03:18:15;97969.91;;;21.33;54.98
56414;BME280;42318;48.452;19.526;2023-05-24T03:25:46;97963.91;;;21.31;54.95
56414;BME280;42318;48.452;19.526;2023-05-24T03:33:16;97962.28;;;21.30;54.61
56414;BME280;42318;48.452;19.526;2023-05-24T03:40:47;97968.81;;;21.29;55.01
56414;BME280;42318;48.452;19.526;2023-05-24T03:48:18;97977.00;;;21.29;54.66
56414;BME280;42318;48.452;19.526;2023-05-24T03:55:51;97984.34;;;21.28;54.86
56414;BME280;42318;48.452;19.526;2023-05-24T04:03:22;97979.19;;;21.27;54.74
56414;BME280;42318;48.452;19.526;2023-05-24T04:10:55;97985.72;;;21.26;54.92
56414;BME280;42318;48.452;19.526;2023-05-24T04:18:26;97984.09;;;21.25;54.61
56414;BME280;42318;48.452;19.526;2023-05-24T04:25:57;97985.44;;;21.27;54.63
56414;BME280;42318;48.452;19.526;2023-05-24T04:33:27;97993.91;;;21.26;54.62
56414;BME280;42318;48.452;19.526;2023-05-24T04:40:58;98010.25;;;21.26;54.81
56414;BME280;42318;48.452;19.526;2023-05-24T04:48:29;98011.06;;;21.26;54.69
56414;BME280;42318;48.452;19.526;2023-05-24T04:56:00;97995.81;;;21.25;54.59
56414;BME280;42318;48.452;19.526;2023-05-24T05:03:31;98011.34;;;21.25;54.89
56414;BME280;42318;48.452;19.526;2023-05-24T05:11:02;98011.84;;;21.22;54.79
56414;BME280;42318;48.452;19.526;2023-05-24T05:18:32;98026.84;;;21.24;54.76
56414;BME280;42318;48.452;19.526;2023-05-24T05:26:04;98035.88;;;21.25;54.82
56414;BME280;42318;48.452;19.526;2023-05-24T05:33:36;98023.31;;;21.24;54.97
56414;BME280;42318;48.452;19.526;2023-05-24T05:41:07;98032.56;;;21.23;54.87
56414;BME280;42318;48.452;19.526;2023-05-24T05:48:38;98036.94;;;21.24;54.50
56414;BME280;42318;48.452;19.526;2023-05-24T05:56:09;98043.47;;;21.23;54.69
56414;BME280;42318;48.452;19.526;2023-05-24T06:03:39;98048.91;;;21.23;54.96
56414;BME280;42318;48.452;19.526;2023-05-24T06:11:10;98063.34;;;21.23;55.04
56414;BME280;42318;48.452;19.526;2023-05-24T06:18:41;98068.00;;;21.23;55.09
56414;BME280;42318;48.452;19.526;2023-05-24T06:26:12;98075.88;;;21.24;55.33
56414;BME280;42318;48.452;19.526;2023-05-24T06:33:43;98074.00;;;21.25;55.52
56414;BME280;42318;48.452;19.526;2023-05-24T06:41:14;98074.56;;;21.27;55.71
56414;BME280;42318;48.452;19.526;2023-05-24T06:48:44;98081.91;;;21.26;55.61
56414;BME280;42318;48.452;19.526;2023-05-24T06:56:15;98083.53;;;21.27;55.30
56414;BME280;42318;48.452;19.526;2023-05-24T07:03:46;98083.28;;;21.29;55.39
56414;BME280;42318;48.452;19.526;2023-05-24T07:20:09;98086.53;;;21.26;55.45
56414;BME280;42318;48.452;19.526;2023-05-24T07:27:40;98099.63;;;21.29;55.22
56414;BME280;42318;48.452;19.526;2023-05-24T07:35:11;98093.06;;;21.30;55.16
56414;BME280;42318;48.452;19.526;2023-05-24T07:42:42;98107.25;;;21.32;55.13
56414;BME280;42318;48.452;19.526;2023-05-24T07:50:13;98112.69;;;21.32;55.23
56414;BME280;42318;48.452;19.526;2023-05-24T07:57:44;98115.69;;;21.30;55.22
56414;BME280;42318;48.452;19.526;2023-05-24T08:05:15;98117.59;;;21.30;55.09
56414;BME280;42318;48.452;19.526;2023-05-24T08:12:46;98131.78;;;21.32;55.05
56414;BME280;42318;48.452;19.526;2023-05-24T08:20:17;98137.22;;;21.32;55.34
56414;BME280;42318;48.452;19.526;2023-05-24T08:27:48;98142.66;;;21.32;55.34
56414;BME280;42318;48.452;19.526;2023-05-24T08:35:18;98152.47;;;21.33;55.14
56414;BME280;42318;48.452;19.526;2023-05-24T08:42:51;98154.94;;;21.35;55.20
56414;BME280;42318;48.452;19.526;2023-05-24T08:50:22;98154.94;;;21.35;55.05
56414;BME280;42318;48.452;19.526;2023-05-24T08:57:54;98163.38;;;21.33;55.04
56414;BME280;42318;48.452;19.526;2023-05-24T09:05:25;98176.19;;;21.38;55.24
56414;BME280;42318;48.452;19.526;2023-05-24T09:12:57;98175.38;;;21.37;55.18
56414;BME280;42318;48.452;19.526;2023-05-24T09:20:31;98177.00;;;21.38;54.85
56414;BME280;42318;48.452;19.526;2023-05-24T09:28:05;98167.47;;;21.36;55.09
56414;BME280;42318;48.452;19.526;2023-05-24T09:35:42;98177.00;;;21.38;55.23
56414;BME280;42318;48.452;19.526;2023-05-24T09:43:15;98186.28;;;21.42;55.27
56414;BME280;42318;48.452;19.526;2023-05-24T09:51:02;98181.38;;;21.44;55.21
56414;BME280;42318;48.452;19.526;2023-05-24T09:58:34;98192.00;;;21.46;55.17
56414;BME280;42318;48.452;19.526;2023-05-24T10:06:05;98196.91;;;21.44;54.89
56414;BME280;42318;48.452;19.526;2023-05-24T10:13:41;98200.44;;;21.44;55.27
56414;BME280;42318;48.452;19.526;2023-05-24T10:21:12;98202.34;;;21.44;55.39
56414;BME280;42318;48.452;19.526;2023-05-24T10:28:46;98204.81;;;21.45;54.75
56414;BME280;42318;48.452;19.526;2023-05-24T10:36:18;98196.34;;;21.47;55.02
56414;BME280;42318;48.452;19.526;2023-05-24T10:43:50;98198.53;;;21.45;55.13
56414;BME280;42318;48.452;19.526;2023-05-24T10:51:32;98198.25;;;21.51;54.81
56414;BME280;42318;48.452;19.526;2023-05-24T10:59:03;98201.53;;;21.53;55.06
56414;BME280;42318;48.452;19.526;2023-05-24T11:14:19;98196.09;;;21.53;54.90
56414;BME280;42318;48.452;19.526;2023-05-24T11:21:55;98196.09;;;21.53;54.89
56414;BME280;42318;48.452;19.526;2023-05-24T11:29:29;98191.44;;;21.54;54.74
56414;BME280;42318;48.452;19.526;2023-05-24T11:37:01;98190.34;;;21.55;54.90
56414;BME280;42318;48.452;19.526;2023-05-24T11:44:33;98178.09;;;21.57;54.87
56414;BME280;42318;48.452;19.526;2023-05-24T11:52:04;98177.81;;;21.59;54.58
56414;BME280;42318;48.452;19.526;2023-05-24T11:59:36;98169.63;;;21.59;54.81
56414;BME280;42318;48.452;19.526;2023-05-24T12:07:11;98163.38;;;21.58;54.72
56414;BME280;42318;48.452;19.526;2023-05-24T12:14:45;98178.91;;;21.58;54.77
56414;BME280;42318;48.452;19.526;2023-05-24T12:22:16;98182.44;;;21.58;55.07
56414;BME280;42318;48.452;19.526;2023-05-24T12:29:47;98189.00;;;21.57;54.80
56414;BME280;42318;48.452;19.526;2023-05-24T12:37:18;98184.63;;;21.56;55.18
56414;BME280;42318;48.452;19.526;2023-05-24T12:44:49;98180.81;;;21.57;54.96
56414;BME280;42318;48.452;19.526;2023-05-24T12:52:22;98158.72;;;21.59;55.15
56414;BME280;42318;48.452;19.526;2023-05-24T12:59:53;98155.72;;;21.60;55.09
56414;BME280;42318;48.452;19.526;2023-05-24T13:07:23;98158.47;;;21.60;54.88
56414;BME280;42318;48.452;19.526;2023-05-24T13:14:54;98160.09;;;21.61;54.77
56414;BME280;42318;48.452;19.526;2023-05-24T13:22:25;98165.53;;;21.61;54.97
56414;BME280;42318;48.452;19.526;2023-05-24T13:29:56;98168.28;;;21.61;55.07
56414;BME280;42318;48.452;19.526;2023-05-24T13:37:27;98148.66;;;21.59;54.92
56414;BME280;42318;48.452;19.526;2023-05-24T13:44:58;98151.38;;;21.59;54.94
56414;BME280;42318;48.452;19.526;2023-05-24T13:52:29;98144.81;;;21.66;55.15
56414;BME280;42318;48.452;19.526;2023-05-24T14:00:00;98143.72;;;21.67;54.73
56414;BME280;42318;48.452;19.526;2023-05-24T14:07:31;98137.72;;;21.64;54.75
56414;BME280;42318;48.452;19.526;2023-05-24T14:15:03;98138.84;;;21.69;54.87
56414;BME280;42318;48.452;19.526;2023-05-24T14:22:34;98137.19;;;21.68;54.91
56414;BME280;42318;48.452;19.526;2023-05-24T14:30:06;98142.63;;;21.68;54.77
56414;BME280;42318;48.452;19.526;2023-05-24T14:37:37;98151.66;;;21.68;54.88
56414;BME280;42318;48.452;19.526;2023-05-24T14:45:08;98160.66;;;21.69;54.81
56414;BME280;42318;48.452;19.526;2023-05-24T14:52:39;98151.38;;;21.70;54.86
56414;BME280;42318;48.452;19.526;2023-05-24T15:00:11;98157.66;;;21.70;55.14
56414;BME280;42318;48.452;19.526;2023-05-24T15:07:42;98147.56;;;21.71;54.82
56414;BME280;42318;48.452;19.526;2023-05-24T15:15:13;98156.84;;;21.70;54.87
56414;BME280;42318;48.452;19.526;2023-05-24T15:22:44;98168.56;;;21.70;54.99
56414;BME280;42318;48.452;19.526;2023-05-24T15:30:17;98175.09;;;21.69;55.05
56414;BME280;42318;48.452;19.526;2023-05-24T15:37:48;98166.34;;;21.67;54.92
56414;BME280;42318;48.452;19.526;2023-05-24T15:45:19;98165.53;;;21.67;54.89
56414;BME280;42318;48.452;19.526;2023-05-24T15:52:50;98172.91;;;21.66;54.97
56414;BME280;42318;48.452;19.526;2023-05-24T16:00:21;98174.00;;;21.65;55.52
56414;BME280;42318;48.452;19.526;2023-05-24T16:07:52;98174.81;;;21.66;55.56
56414;BME280;42318;48.452;19.526;2023-05-24T16:15:23;98167.44;;;21.66;55.21
56414;BME280;42318;48.452;19.526;2023-05-24T16:22:56;98188.44;;;21.66;55.15
56414;BME280;42318;48.452;19.526;2023-05-24T16:30:27;98193.91;;;21.66;55.71
56414;BME280;42318;48.452;19.526;2023-05-24T16:37:59;98196.91;;;21.64;55.81
56414;BME280;42318;48.452;19.526;2023-05-24T16:45:30;98214.06;;;21.64;56.07
56414;BME280;42318;48.452;19.526;2023-05-24T16:53:01;98232.06;;;21.66;55.38
56414;BME280;42318;48.452;19.526;2023-05-24T17:00:31;98231.53;;;21.63;55.53
56414;BME280;42318;48.452;19.526;2023-05-24T17:08:02;98225.25;;;21.58;55.41
56414;BME280;42318;48.452;19.526;2023-05-24T17:15:33;98238.88;;;21.63;56.10
56414;BME280;42318;48.452;19.526;2023-05-24T17:23:04;98260.69;;;21.63;56.24
56414;BME280;42318;48.452;19.526;2023-05-24T17:30:35;98270.78;;;21.62;56.39
56414;BME280;42318;48.452;19.526;2023-05-24T17:38:06;98278.97;;;21.62;56.39
56414;BME280;42318;48.452;19.526;2023-05-24T17:45:36;98283.59;;;21.62;56.75
56414;BME280;42318;48.452;19.526;2023-05-24T17:53:07;98285.50;;;21.61;56.53
56414;BME280;42318;48.452;19.526;2023-05-24T18:00:38;98292.88;;;21.61;56.74
56414;BME280;42318;48.452;19.526;2023-05-24T18:08:09;98298.03;;;21.62;56.59
56414;BME280;42318;48.452;19.526;2023-05-24T18:15:39;98315.50;;;21.67;58.71
56414;BME280;42318;48.452;19.526;2023-05-24T18:23:10;98324.00;;;21.70;59.60
56414;BME280;42318;48.452;19.526;2023-05-24T18:30:42;98346.63;;;21.71;59.05
56414;BME280;42318;48.452;19.526;2023-05-24T18:38:13;98346.91;;;21.69;58.97
56414;BME280;42318;48.452;19.526;2023-05-24T18:45:44;98350.44;;;21.70;59.03
56414;BME280;42318;48.452;19.526;2023-05-24T18:53:15;98359.72;;;21.69;58.95
56414;BME280;42318;48.452;19.526;2023-05-24T19:00:46;98360.25;;;21.71;58.24
56414;BME280;42318;48.452;19.526;2023-05-24T19:08:19;98370.91;;;21.72;58.52
56414;BME280;42318;48.452;19.526;2023-05-24T19:15:50;98386.97;;;21.74;58.62
56414;BME280;42318;48.452;19.526;2023-05-24T19:23:22;98386.44;;;21.77;58.84
56414;BME280;42318;48.452;19.526;2023-05-24T19:30:53;98388.09;;;21.78;58.54
56414;BME280;42318;48.452;19.526;2023-05-24T19:38:24;98399.00;;;21.78;58.40
56414;BME280;42318;48.452;19.526;2023-05-24T19:45:55;98395.19;;;21.79;57.95
56414;BME280;42318;48.452;19.526;2023-05-24T19:53:27;98394.34;;;21.78;57.92
56414;BME280;42318;48.452;19.526;2023-05-24T20:00:58;98395.44;;;21.77;57.48
56414;BME280;42318;48.452;19.526;2023-05-24T20:08:28;98388.09;;;21.78;57.48
56414;BME280;42318;48.452;19.526;2023-05-24T20:15:59;98379.91;;;21.78;57.47
56414;BME280;42318;48.452;19.526;2023-05-24T20:23:30;98380.16;;;21.76;57.43
56414;BME280;42318;48.452;19.526;2023-05-24T20:31:01;98371.16;;;21.76;57.16
56414;BME280;42318;48.452;19.526;2023-05-24T20:38:33;98382.63;;;21.78;57.03
56414;BME280;42318;48.452;19.526;2023-05-24T20:46:04;98388.06;;;21.73;56.84
56414;BME280;42318;48.452;19.526;2023-05-24T20:53:35;98394.63;;;21.77;56.79
56414;BME280;42318;48.452;19.526;2023-05-24T21:01:07;98396.81;;;21.75;56.65
56414;BME280;42318;48.452;19.526;2023-05-24T21:08:38;98401.44;;;21.74;56.91
56414;BME280;42318;48.452;19.526;2023-05-24T21:16:08;98398.72;;;21.74;56.77
56414;BME280;42318;48.452;19.526;2023-05-24T21:23:39;98400.34;;;21.75;56.81
56414;BME280;42318;48.452;19.526;2023-05-24T21:31:10;98409.34;;;21.76;56.58
56414;BME280;42318;48.452;19.526;2023-05-24T21:38:41;98416.72;;;21.75;56.49
56414;BME280;42318;48.452;19.526;2023-05-24T21:46:11;98430.63;;;21.74;56.22
56414;BME280;42318;48.452;19.526;2023-05-24T21:53:42;98427.88;;;21.74;56.66
56414;BME280;42318;48.452;19.526;2023-05-24T22:01:13;98437.97;;;21.73;56.34
56414;BME280;42318;48.452;19.526;2023-05-24T22:08:44;98453.78;;;21.71;56.51
56414;BME280;42318;48.452;19.526;2023-05-24T22:16:15;98466.06;;;21.74;56.15
56414;BME280;42318;48.452;19.526;2023-05-24T22:23:45;98472.34;;;21.74;56.17
56414;BME280;42318;48.452;19.526;2023-05-24T22:31:17;98470.44;;;21.75;55.94
56414;BME280;42318;48.452;19.526;2023-05-24T22:38:49;98464.69;;;21.71;56.38
56414;BME280;42318;48.452;19.526;2023-05-24T22:46:19;98454.00;;;21.64;56.02
56414;BME280;42318;48.452;19.526;2023-05-24T22:53:51;98464.91;;;21.64;56.15
56414;BME280;42318;48.452;19.526;2023-05-24T23:01:22;98464.38;;;21.62;56.00
56414;BME280;42318;48.452;19.526;2023-05-24T23:08:54;98470.09;;;21.61;56.22
56414;BME280;42318;48.452;19.526;2023-05-24T23:16:27;98464.34;;;21.57;56.05
56414;BME280;42318;48.452;19.526;2023-05-24T23:23:59;98467.91;;;21.58;56.15
56414;BME280;42318;48.452;19.526;2023-05-24T23:31:31;98468.97;;;21.57;56.04
56414;BME280;42318;48.452;19.526;2023-05-24T23:39:02;98462.44;;;21.53;56.11
56414;BME280;42318;48.452;19.526;2023-05-24T23:46:33;98479.03;;;21.51;56.00
56414;BME280;42318;48.452;19.526;2023-05-24T23:54:05;98477.97;;;21.52;55.75
